Time;durP1;ratioP1;P1;durP2;ratioP2;P2;SDS_P1;SDS_P2;PMS_P1;PMS_P2;Temp;Humidity;BMP_temperature;BMP_pressure;BME280_temperature;BME280_humidity;BME280_pressure;Samples;Min_cycle;Max_cycle;Signal;HPM_P1;HPM_P2
2023/12/30 00:00:21;;;;;;;2.22;0.57;;;9.30;84.80;;;;;;5053813;28;20052;-71
2023/12/30 00:02:48;;;;;;;0.40;0.30;;;9.20;84.70;;;;;;5045094;28;20110;-71
2023/12/30 00:05:14;;;;;;;3.95;0.30;;;9.30;84.70;;;;;;5043267;28;20434;-71
2023/12/30 00:07:40;;;;;;;0.50;0.50;;;9.20;84.70;;;;;;5048387;28;20036;-71
2023/12/30 00:10:07;;;;;;;1.25;0.40;;;9.20;84.70;;;;;;5046622;28;20083;-63
2023/12/30 00:12:32;;;;;;;0.70;0.35;;;9.20;84.70;;;;;;5044494;28;20037;-62
2023/12/30 00:14:58;;;;;;;0.70;0.47;;;9.10;84.60;;;;;;5049455;28;20456;-62
2023/12/30 00:17:24;;;;;;;0.73;0.73;;;9.10;84.60;;;;;;5043243;28;20036;-62
2023/12/30 00:19:49;;;;;;;0.30;0.28;;;9.10;84.70;;;;;;5050740;28;20074;-62
2023/12/30 00:22:15;;;;;;;0.98;0.50;;;9.00;84.70;;;;;;5054593;28;20107;-63
2023/12/30 00:24:42;;;;;;;1.75;0.40;;;9.00;84.70;;;;;;5050917;28;20033;-62
2023/12/30 00:27:08;;;;;;;1.50;0.57;;;9.00;84.70;;;;;;5047460;28;20025;-62
2023/12/30 00:29:38;;;;;;;0.45;0.30;;;8.90;84.70;;;;;;5047607;28;20501;-63
2023/12/30 00:32:05;;;;;;;0.30;0.30;;;8.90;84.70;;;;;;5053859;28;20021;-63
2023/12/30 00:34:34;;;;;;;1.55;0.68;;;8.90;84.70;;;;;;5054627;28;20037;-62
2023/12/30 00:37:00;;;;;;;8.98;1.05;;;8.90;84.70;;;;;;5055455;28;20074;-62
2023/12/30 00:39:26;;;;;;;0.32;0.30;;;8.90;84.70;;;;;;5048793;28;20033;-62
2023/12/30 00:41:52;;;;;;;0.55;0.55;;;8.80;84.70;;;;;;5053548;28;20029;-62
2023/12/30 00:44:17;;;;;;;1.98;0.68;;;8.80;84.70;;;;;;5048424;28;20041;-62
2023/12/30 00:46:43;;;;;;;1.13;0.47;;;8.80;84.80;;;;;;5051565;28;20723;-62
2023/12/30 00:49:09;;;;;;;4.32;1.27;;;8.80;84.80;;;;;;5052995;28;20032;-62
2023/12/30 00:51:35;;;;;;;1.85;0.50;;;8.80;84.80;;;;;;5048944;28;20017;-62
2023/12/30 00:54:01;;;;;;;2.65;1.20;;;8.80;84.90;;;;;;5049654;28;20526;-62
2023/12/30 00:56:27;;;;;;;1.63;0.60;;;8.70;84.90;;;;;;5052553;28;20684;-62
2023/12/30 00:58:53;;;;;;;1.00;0.68;;;8.80;84.90;;;;;;5048691;28;20041;-62
2023/12/30 01:01:19;;;;;;;4.90;0.98;;;8.80;84.80;;;;;;5059458;28;20036;-62
2023/12/30 01:03:44;;;;;;;1.45;0.80;;;8.70;84.80;;;;;;5047665;28;20369;-62
2023/12/30 01:06:10;;;;;;;4.10;0.40;;;8.70;84.90;;;;;;5057104;28;20112;-62
2023/12/30 01:08:36;;;;;;;1.00;0.88;;;8.70;84.90;;;;;;5053583;28;20024;-62
2023/12/30 01:11:02;;;;;;;1.83;0.90;;;8.70;84.90;;;;;;5055595;28;20053;-63
2023/12/30 01:13:28;;;;;;;2.30;1.05;;;8.70;84.90;;;;;;5053280;28;20419;-63
2023/12/30 01:15:54;;;;;;;4.65;0.93;;;8.70;84.90;;;;;;5052309;28;20055;-62
2023/12/30 01:18:20;;;;;;;1.23;0.63;;;8.70;84.80;;;;;;5058519;28;20494;-62
2023/12/30 01:20:45;;;;;;;3.40;0.85;;;8.70;84.80;;;;;;5062698;28;20027;-62
2023/12/30 01:23:11;;;;;;;2.05;0.50;;;8.70;84.80;;;;;;5052081;28;20037;-62
2023/12/30 01:25:38;;;;;;;3.22;0.77;;;8.70;84.80;;;;;;5053370;28;20458;-63
2023/12/30 01:28:06;;;;;;;2.50;1.00;;;8.70;84.90;;;;;;5052357;28;20098;-62
2023/12/30 01:30:31;;;;;;;3.20;0.55;;;8.70;84.90;;;;;;5055871;28;20036;-62
2023/12/30 01:32:57;;;;;;;2.05;0.88;;;8.70;84.90;;;;;;5062521;28;20033;-62
2023/12/30 01:35:23;;;;;;;1.38;0.40;;;8.70;85.00;;;;;;5053890;28;20096;-62
2023/12/30 01:37:48;;;;;;;1.80;1.25;;;8.70;85.00;;;;;;5056789;28;20430;-63
2023/12/30 01:40:14;;;;;;;1.00;0.73;;;8.70;84.90;;;;;;5059940;28;20450;-63
2023/12/30 01:42:41;;;;;;;2.67;0.95;;;8.70;84.90;;;;;;5049839;28;20491;-62
2023/12/30 01:45:07;;;;;;;1.45;0.77;;;8.70;85.00;;;;;;5052130;28;20526;-63
2023/12/30 01:47:34;;;;;;;0.43;0.43;;;8.70;85.00;;;;;;5048703;28;20052;-63
2023/12/30 01:49:59;;;;;;;0.80;0.50;;;8.70;85.10;;;;;;5054796;28;20079;-62
2023/12/30 01:52:25;;;;;;;1.10;0.68;;;8.70;85.10;;;;;;5055847;28;20475;-63
2023/12/30 01:54:51;;;;;;;5.53;1.40;;;8.70;85.00;;;;;;5053677;28;20476;-72
2023/12/30 01:57:17;;;;;;;0.60;0.57;;;8.70;84.90;;;;;;5047608;28;20020;-62
2023/12/30 01:59:45;;;;;;;1.13;0.65;;;8.70;84.90;;;;;;5054027;28;20080;-62
2023/12/30 02:02:10;;;;;;;3.30;0.55;;;8.70;84.90;;;;;;5051365;28;20017;-71
2023/12/30 02:04:38;;;;;;;4.68;0.63;;;8.70;84.80;;;;;;5051655;28;20029;-63
2023/12/30 02:07:03;;;;;;;1.40;0.50;;;8.70;84.80;;;;;;5052389;28;20023;-62
2023/12/30 02:09:29;;;;;;;2.80;1.13;;;8.70;84.90;;;;;;5057677;28;20396;-71
2023/12/30 02:11:55;;;;;;;2.78;0.52;;;8.70;85.00;;;;;;5042700;28;20065;-71
2023/12/30 02:14:30;;;;;;;0.90;0.45;;;8.70;84.90;;;;;;5047991;28;20033;-62
2023/12/30 02:16:57;;;;;;;1.75;0.77;;;8.80;84.90;;;;;;5046959;28;20496;-62
2023/12/30 02:19:24;;;;;;;0.80;0.75;;;8.70;85.00;;;;;;5054113;28;20025;-62
2023/12/30 02:21:50;;;;;;;3.50;0.45;;;8.70;85.00;;;;;;5050391;28;20040;-62
2023/12/30 02:24:16;;;;;;;1.20;0.57;;;8.70;85.00;;;;;;5049949;28;20075;-62
2023/12/30 02:26:42;;;;;;;1.17;0.88;;;8.70;85.00;;;;;;5060270;28;20476;-62
2023/12/30 02:29:08;;;;;;;0.60;0.57;;;8.70;85.00;;;;;;5054906;28;20097;-62
2023/12/30 02:31:46;;;;;;;0.98;0.82;;;8.80;85.00;;;;;;5048110;28;20039;-62
2023/12/30 02:34:19;;;;;;;3.63;0.80;;;8.80;85.00;;;;;;5050075;28;20716;-62
2023/12/30 02:36:45;;;;;;;2.08;1.00;;;8.80;85.10;;;;;;5059397;28;20487;-62
2023/12/30 02:39:11;;;;;;;3.55;1.00;;;8.80;85.30;;;;;;5051922;28;20100;-62
2023/12/30 02:41:37;;;;;;;4.65;0.85;;;8.70;85.30;;;;;;5059405;28;20037;-62
2023/12/30 02:44:04;;;;;;;2.92;0.95;;;8.80;85.30;;;;;;5056635;28;20467;-62
2023/12/30 02:46:30;;;;;;;1.35;0.82;;;8.70;85.40;;;;;;5053773;28;20036;-62
2023/12/30 02:48:57;;;;;;;2.67;1.10;;;8.70;85.50;;;;;;5053670;28;20109;-62
2023/12/30 02:51:23;;;;;;;0.85;0.73;;;8.70;85.60;;;;;;5051596;28;20147;-63
2023/12/30 02:53:49;;;;;;;4.03;1.38;;;8.80;85.60;;;;;;5054899;28;20038;-62
2023/12/30 02:56:19;;;;;;;1.88;0.98;;;8.80;85.80;;;;;;5045218;28;20051;-62
2023/12/30 02:58:48;;;;;;;2.85;1.00;;;8.80;85.80;;;;;;5047697;28;20416;-63
2023/12/30 03:01:14;;;;;;;0.77;0.55;;;8.80;85.90;;;;;;5052484;28;20021;-63
2023/12/30 03:03:40;;;;;;;2.30;1.05;;;8.80;85.90;;;;;;5049617;28;20541;-71
2023/12/30 03:06:06;;;;;;;1.10;0.85;;;8.80;85.80;;;;;;5046861;28;20017;-71
2023/12/30 03:08:31;;;;;;;4.55;1.20;;;8.80;86.00;;;;;;5049230;28;20082;-71
2023/12/30 03:10:57;;;;;;;4.03;1.25;;;8.80;86.00;;;;;;5054442;28;20060;-71
2023/12/30 03:13:23;;;;;;;6.45;1.15;;;8.80;86.10;;;;;;5050500;28;20207;-72
2023/12/30 03:15:48;;;;;;;6.05;1.08;;;8.80;86.70;;;;;;5056800;28;20041;-71
2023/12/30 03:18:14;;;;;;;0.68;0.57;;;8.80;86.00;;;;;;5053429;28;20403;-71
2023/12/30 03:20:40;;;;;;;2.10;1.15;;;8.80;86.00;;;;;;5054817;28;20087;-72
2023/12/30 03:23:05;;;;;;;3.75;1.20;;;8.80;85.90;;;;;;5054087;28;20111;-72
2023/12/30 03:25:32;;;;;;;2.10;1.00;;;8.80;85.90;;;;;;5054299;28;20062;-72
2023/12/30 03:27:58;;;;;;;0.88;0.60;;;8.80;86.00;;;;;;5057404;28;20413;-72
2023/12/30 03:30:24;;;;;;;0.50;0.38;;;8.80;86.00;;;;;;5055913;28;20024;-72
2023/12/30 03:32:49;;;;;;;3.60;1.10;;;8.80;86.10;;;;;;5050557;28;20422;-72
2023/12/30 03:35:16;;;;;;;6.45;0.85;;;8.70;86.20;;;;;;5052797;28;20021;-72
2023/12/30 03:37:42;;;;;;;1.65;0.88;;;8.80;86.20;;;;;;5052085;28;20037;-71
2023/12/30 03:40:08;;;;;;;2.55;0.85;;;8.70;86.20;;;;;;5054353;28;20439;-71
2023/12/30 03:42:34;;;;;;;1.65;0.90;;;8.70;86.10;;;;;;5041382;28;20429;-72
2023/12/30 03:45:01;;;;;;;6.32;1.05;;;8.70;86.10;;;;;;5052597;28;20119;-72
2023/12/30 03:47:27;;;;;;;4.00;1.08;;;8.80;86.20;;;;;;5047521;28;20421;-72
2023/12/30 03:49:52;;;;;;;3.88;1.13;;;8.70;86.10;;;;;;5055194;28;20555;-72
2023/12/30 03:52:18;;;;;;;1.95;0.90;;;8.80;86.20;;;;;;5050243;28;20021;-71
2023/12/30 03:54:43;;;;;;;2.22;0.82;;;8.80;86.10;;;;;;5047541;28;20072;-72
2023/12/30 03:57:09;;;;;;;5.47;0.93;;;8.80;86.10;;;;;;5050904;28;20041;-72
2023/12/30 03:59:36;;;;;;;3.30;0.65;;;8.80;85.90;;;;;;5056138;28;20136;-71
2023/12/30 04:02:02;;;;;;;0.77;0.63;;;8.80;86.00;;;;;;5055055;28;20042;-71
2023/12/30 04:04:28;;;;;;;4.38;1.77;;;8.80;86.00;;;;;;5053190;28;20028;-71
2023/12/30 04:06:53;;;;;;;0.55;0.55;;;8.80;86.00;;;;;;5048329;28;20078;-72
2023/12/30 04:09:19;;;;;;;1.23;0.57;;;8.80;86.20;;;;;;5059952;28;20021;-72
2023/12/30 04:11:45;;;;;;;2.33;1.20;;;8.80;86.30;;;;;;5055144;28;20037;-72
2023/12/30 04:14:10;;;;;;;5.65;1.55;;;8.80;86.30;;;;;;5057454;28;20438;-72
2023/12/30 04:16:36;;;;;;;5.70;1.88;;;8.80;86.20;;;;;;5048426;28;20029;-72
2023/12/30 04:19:02;;;;;;;2.15;0.88;;;8.80;86.20;;;;;;5048939;28;20090;-72
2023/12/30 04:21:28;;;;;;;1.85;0.70;;;8.80;86.30;;;;;;5035263;28;20056;-72
2023/12/30 04:23:53;;;;;;;4.50;1.10;;;8.80;86.40;;;;;;5047414;28;20041;-72
2023/12/30 04:26:19;;;;;;;6.20;1.25;;;8.80;86.40;;;;;;5049910;28;20056;-62
2023/12/30 04:28:46;;;;;;;5.07;0.98;;;8.80;86.40;;;;;;5050569;28;20171;-62
2023/12/30 04:31:12;;;;;;;3.95;0.70;;;8.80;86.60;;;;;;5051725;28;20029;-63
2023/12/30 04:33:38;;;;;;;6.80;1.20;;;8.70;86.60;;;;;;5044879;28;20423;-62
2023/12/30 04:36:03;;;;;;;3.72;0.82;;;8.80;86.60;;;;;;5051247;28;20067;-63
2023/12/30 04:38:29;;;;;;;3.45;1.15;;;8.70;86.60;;;;;;5056935;28;20114;-63
2023/12/30 04:40:56;;;;;;;2.47;0.85;;;8.80;86.70;;;;;;5053363;28;20025;-62
2023/12/30 04:43:21;;;;;;;5.10;1.23;;;8.80;86.60;;;;;;5054319;28;20037;-62
2023/12/30 04:45:47;;;;;;;2.20;1.15;;;8.80;86.50;;;;;;5052627;28;20025;-62
2023/12/30 04:48:12;;;;;;;5.60;1.25;;;8.80;86.50;;;;;;5045335;28;20044;-62
2023/12/30 04:50:38;;;;;;;3.58;1.50;;;8.70;86.60;;;;;;5052573;28;20025;-62
2023/12/30 04:53:04;;;;;;;7.05;0.98;;;8.70;86.60;;;;;;5053580;28;20033;-62
2023/12/30 04:55:30;;;;;;;3.60;0.68;;;8.70;86.80;;;;;;5046863;28;20357;-72
2023/12/30 04:57:55;;;;;;;5.55;1.50;;;8.70;86.80;;;;;;5055343;28;20116;-72
2023/12/30 05:00:21;;;;;;;3.78;1.25;;;8.70;86.80;;;;;;5057710;28;20029;-72
2023/12/30 05:02:47;;;;;;;2.30;0.73;;;8.70;87.30;;;;;;5052880;28;20021;-72
2023/12/30 05:05:13;;;;;;;4.38;1.30;;;8.70;86.80;;;;;;5055371;28;20032;-72
2023/12/30 05:07:38;;;;;;;1.85;0.90;;;8.70;86.80;;;;;;5056462;28;20335;-72
2023/12/30 05:10:04;;;;;;;4.25;1.23;;;8.70;86.80;;;;;;5050308;28;20464;-72
2023/12/30 05:12:30;;;;;;;4.65;1.00;;;8.70;86.80;;;;;;5060912;28;20035;-72
2023/12/30 05:14:56;;;;;;;2.05;1.40;;;8.70;86.70;;;;;;5053211;28;20476;-62
2023/12/30 05:17:21;;;;;;;4.32;1.45;;;8.70;86.60;;;;;;5061246;28;20040;-62
2023/12/30 05:19:47;;;;;;;4.50;1.05;;;8.70;86.70;;;;;;5052732;28;20033;-63
2023/12/30 05:22:13;;;;;;;2.80;0.70;;;8.70;86.60;;;;;;5054064;28;20040;-62
2023/12/30 05:24:38;;;;;;;0.57;0.50;;;8.70;86.60;;;;;;5056349;28;20064;-62
2023/12/30 05:27:04;;;;;;;2.70;0.90;;;8.70;86.50;;;;;;5057087;28;20078;-62
2023/12/30 05:29:30;;;;;;;2.00;1.08;;;8.70;86.50;;;;;;5054075;28;20036;-62
2023/12/30 05:31:55;;;;;;;1.63;0.68;;;8.70;86.50;;;;;;5039218;28;20050;-72
2023/12/30 05:34:21;;;;;;;7.00;1.48;;;8.70;86.50;;;;;;5050822;28;20025;-72
2023/12/30 05:36:47;;;;;;;2.45;0.95;;;8.70;86.40;;;;;;5058905;28;20111;-72
2023/12/30 05:39:14;;;;;;;14.50;1.52;;;8.70;86.40;;;;;;5051236;28;20032;-72
2023/12/30 05:41:40;;;;;;;10.55;1.73;;;8.70;86.40;;;;;;5054566;28;20032;-63
2023/12/30 05:44:06;;;;;;;1.77;0.68;;;8.70;86.40;;;;;;5053426;28;20857;-62
2023/12/30 05:46:32;;;;;;;3.58;1.15;;;8.70;86.40;;;;;;5053668;28;20025;-72
2023/12/30 05:48:57;;;;;;;1.92;1.08;;;8.60;86.40;;;;;;5052166;28;20036;-72
2023/12/30 05:51:23;;;;;;;1.00;0.90;;;8.60;86.40;;;;;;5044552;28;20029;-72
2023/12/30 05:53:48;;;;;;;1.60;0.93;;;8.60;86.50;;;;;;5051620;28;20097;-72
2023/12/30 05:56:24;;;;;;;3.50;0.93;;;8.60;86.40;;;;;;5054708;28;20040;-72
2023/12/30 05:58:52;;;;;;;1.60;0.90;;;8.60;86.50;;;;;;5056423;28;20539;-72
2023/12/30 06:01:18;;;;;;;8.27;1.92;;;8.60;86.50;;;;;;5058390;28;21185;-72
2023/12/30 06:03:44;;;;;;;6.40;1.40;;;8.60;86.50;;;;;;5052365;28;20511;-72
2023/12/30 06:06:09;;;;;;;3.65;1.20;;;8.60;86.50;;;;;;5059499;28;20102;-72
2023/12/30 06:08:35;;;;;;;3.35;1.00;;;8.60;86.40;;;;;;5054753;28;20033;-73
2023/12/30 06:11:01;;;;;;;5.05;1.52;;;8.60;86.50;;;;;;5035737;28;20044;-73
2023/12/30 06:13:27;;;;;;;2.42;0.98;;;8.60;86.60;;;;;;5054968;28;20480;-72
2023/12/30 06:15:56;;;;;;;4.70;1.10;;;8.60;86.60;;;;;;5059260;28;20028;-72
2023/12/30 06:18:26;;;;;;;6.75;1.77;;;8.50;86.70;;;;;;5053821;28;20052;-73
2023/12/30 06:20:52;;;;;;;6.20;1.33;;;8.50;86.80;;;;;;5050287;28;20036;-72
2023/12/30 06:23:17;;;;;;;5.15;1.15;;;8.60;86.80;;;;;;5051091;28;20029;-73
2023/12/30 06:25:43;;;;;;;2.15;1.05;;;8.60;86.70;;;;;;5055318;28;20143;-72
2023/12/30 06:28:09;;;;;;;4.43;1.33;;;8.60;86.70;;;;;;5054751;28;20522;-72
2023/12/30 06:30:34;;;;;;;6.43;1.30;;;8.50;86.80;;;;;;5055168;28;20030;-62
2023/12/30 06:33:06;;;;;;;3.33;1.35;;;8.50;86.90;;;;;;5052567;28;20028;-72
2023/12/30 06:35:32;;;;;;;1.05;0.63;;;8.50;86.90;;;;;;5055850;28;20021;-72
2023/12/30 06:37:58;;;;;;;7.53;1.77;;;8.50;86.90;;;;;;5049763;28;20537;-73
2023/12/30 06:40:24;;;;;;;1.42;0.93;;;8.50;87.00;;;;;;5051111;28;20037;-72
2023/12/30 06:42:49;;;;;;;6.38;1.00;;;8.50;87.00;;;;;;5049424;28;20060;-73
2023/12/30 06:45:15;;;;;;;3.20;1.25;;;8.50;87.00;;;;;;5053703;28;20377;-73
2023/12/30 06:47:42;;;;;;;3.65;1.27;;;8.50;87.10;;;;;;5050868;28;20030;-73
2023/12/30 06:50:08;;;;;;;1.70;0.90;;;8.50;87.20;;;;;;5051549;28;20029;-62
2023/12/30 06:52:34;;;;;;;5.35;1.85;;;8.50;87.10;;;;;;5048180;28;20372;-62
2023/12/30 06:54:59;;;;;;;3.38;1.02;;;8.50;87.10;;;;;;5053937;28;20032;-62
2023/12/30 06:57:25;;;;;;;2.47;1.08;;;8.50;87.00;;;;;;5057593;28;20033;-62
2023/12/30 06:59:51;;;;;;;6.50;1.20;;;8.50;87.00;;;;;;5049590;28;20025;-62
2023/12/30 07:02:17;;;;;;;4.38;1.23;;;8.60;87.00;;;;;;5048701;28;20033;-62
2023/12/30 07:04:42;;;;;;;3.05;0.80;;;8.50;87.10;;;;;;5049875;28;20029;-62
2023/12/30 07:07:08;;;;;;;5.57;1.45;;;8.50;87.20;;;;;;5056727;28;20163;-62
2023/12/30 07:09:34;;;;;;;19.70;1.45;;;8.50;87.30;;;;;;5053112;28;20025;-62
2023/12/30 07:11:59;;;;;;;4.50;1.60;;;8.50;87.30;;;;;;5056507;28;20032;-62
2023/12/30 07:14:25;;;;;;;2.25;1.33;;;8.50;87.40;;;;;;5056173;28;20033;-62
2023/12/30 07:16:51;;;;;;;3.08;1.58;;;8.50;87.40;;;;;;5057976;28;20388;-62
2023/12/30 07:19:17;;;;;;;1.63;1.33;;;8.50;87.50;;;;;;5054563;28;20039;-62
2023/12/30 07:21:43;;;;;;;5.28;1.25;;;8.50;87.60;;;;;;5052005;28;20453;-62
2023/12/30 07:24:08;;;;;;;3.88;1.27;;;8.50;87.70;;;;;;5044219;28;20123;-62
2023/12/30 07:26:34;;;;;;;2.65;1.25;;;8.40;87.70;;;;;;5051115;28;20052;-62
2023/12/30 07:28:59;;;;;;;1.00;0.73;;;8.40;87.70;;;;;;5049066;28;20056;-65
2023/12/30 07:31:25;;;;;;;6.30;1.15;;;8.50;87.80;;;;;;5047339;28;20029;-62
2023/12/30 07:33:51;;;;;;;4.68;1.15;;;8.50;87.70;;;;;;5046109;28;20029;-63
2023/12/30 07:36:17;;;;;;;8.80;1.70;;;8.50;87.60;;;;;;5057665;28;20484;-61
2023/12/30 07:38:43;;;;;;;2.17;1.63;;;8.50;87.60;;;;;;5047989;28;20915;-61
2023/12/30 07:41:14;;;;;;;4.15;1.27;;;8.50;87.60;;;;;;5055613;28;20033;-61
2023/12/30 07:43:39;;;;;;;6.38;1.90;;;8.50;87.60;;;;;;5049204;28;20033;-63
2023/12/30 07:46:05;;;;;;;4.25;1.63;;;8.50;87.60;;;;;;5052002;28;20396;-63
2023/12/30 07:48:31;;;;;;;8.85;2.47;;;8.50;87.70;;;;;;5047339;28;20071;-63
2023/12/30 07:50:57;;;;;;;3.42;0.90;;;8.50;87.60;;;;;;5052249;28;20050;-61
2023/12/30 07:53:23;;;;;;;2.22;1.10;;;8.40;87.60;;;;;;5051159;28;20032;-61
2023/12/30 07:55:48;;;;;;;7.75;2.22;;;8.40;87.70;;;;;;5049324;28;20158;-71
2023/12/30 07:58:14;;;;;;;11.93;2.53;;;8.40;87.80;;;;;;5058537;28;20021;-70
2023/12/30 08:00:40;;;;;;;9.75;1.95;;;8.30;87.70;;;;;;5058483;28;20112;-70
2023/12/30 08:03:05;;;;;;;2.75;1.23;;;8.40;87.70;;;;;;5049264;28;20029;-71
2023/12/30 08:05:31;;;;;;;1.45;0.60;;;8.40;87.70;;;;;;5053225;28;20029;-70
2023/12/30 08:07:57;;;;;;;3.00;1.30;;;8.40;87.60;;;;;;5055251;28;20029;-70
2023/12/30 08:10:24;;;;;;;4.93;0.93;;;8.40;87.50;;;;;;5051397;28;20119;-71
2023/12/30 08:12:50;;;;;;;6.50;1.23;;;8.40;87.40;;;;;;5055223;28;20047;-73
2023/12/30 08:15:16;;;;;;;3.13;0.77;;;8.50;87.40;;;;;;5053406;28;20044;-73
2023/12/30 08:17:41;;;;;;;3.78;1.02;;;8.40;87.30;;;;;;5046521;28;20492;-73
2023/12/30 08:20:08;;;;;;;2.65;1.48;;;8.50;87.40;;;;;;5050665;28;20043;-69
2023/12/30 08:22:33;;;;;;;4.82;1.40;;;8.40;87.30;;;;;;5059068;28;20028;-69
2023/12/30 08:24:59;;;;;;;7.60;1.23;;;8.40;87.40;;;;;;5050386;28;20090;-74
2023/12/30 08:27:25;;;;;;;2.40;1.63;;;8.50;87.40;;;;;;5053047;28;20021;-69
2023/12/30 08:29:50;;;;;;;5.93;1.13;;;8.50;87.40;;;;;;5049205;28;20474;-68
2023/12/30 08:32:17;;;;;;;3.97;1.42;;;8.50;87.40;;;;;;5051114;28;20040;-71
2023/12/30 08:34:42;;;;;;;3.47;1.15;;;8.50;87.50;;;;;;5052261;28;20029;-71
2023/12/30 08:37:09;;;;;;;4.15;1.52;;;8.50;87.50;;;;;;5055880;28;20039;-70
2023/12/30 08:39:38;;;;;;;2.42;0.90;;;8.60;87.40;;;;;;5054430;28;20052;-72
2023/12/30 08:42:06;;;;;;;4.95;1.45;;;8.60;87.50;;;;;;5051867;28;20029;-74
2023/12/30 08:44:32;;;;;;;5.25;1.50;;;8.60;87.40;;;;;;5061054;28;20041;-72
2023/12/30 08:46:58;;;;;;;2.92;1.00;;;8.60;87.40;;;;;;5046000;28;20025;-75
2023/12/30 08:49:24;;;;;;;3.20;1.08;;;8.60;87.40;;;;;;5054047;28;20076;-74
2023/12/30 08:51:49;;;;;;;1.40;0.68;;;8.70;87.40;;;;;;5052929;28;20025;-72
2023/12/30 08:54:15;;;;;;;4.82;1.30;;;8.70;87.30;;;;;;5049966;28;20044;-72
2023/12/30 08:56:41;;;;;;;2.70;1.08;;;8.80;87.30;;;;;;5047655;28;20048;-71
2023/12/30 08:59:06;;;;;;;2.60;0.80;;;8.80;87.30;;;;;;5052868;28;20025;-73
2023/12/30 09:01:32;;;;;;;0.80;0.80;;;8.90;87.20;;;;;;5035815;28;20040;-73
2023/12/30 09:03:59;;;;;;;7.10;1.50;;;8.90;87.00;;;;;;5045801;28;20048;-72
2023/12/30 09:06:25;;;;;;;5.57;2.10;;;8.90;86.90;;;;;;5056472;28;20064;-72
2023/12/30 09:08:51;;;;;;;2.42;1.33;;;9.00;87.00;;;;;;5049416;28;20057;-72
2023/12/30 09:11:18;;;;;;;6.95;1.80;;;9.00;86.90;;;;;;5051570;28;20567;-73
2023/12/30 09:13:44;;;;;;;3.00;1.20;;;9.00;86.90;;;;;;5060534;28;20024;-72
2023/12/30 09:16:11;;;;;;;5.35;1.85;;;9.10;86.90;;;;;;5052402;28;20158;-73
2023/12/30 09:18:37;;;;;;;5.38;1.25;;;9.10;86.80;;;;;;5054270;28;20370;-72
2023/12/30 09:21:02;;;;;;;7.82;1.55;;;9.10;86.70;;;;;;5048779;28;20458;-72
2023/12/30 09:23:28;;;;;;;5.07;1.33;;;9.10;86.70;;;;;;5050174;28;20048;-61
2023/12/30 09:25:54;;;;;;;5.93;1.65;;;9.10;86.70;;;;;;5057350;28;20029;-62
2023/12/30 09:28:19;;;;;;;3.25;1.20;;;9.20;86.70;;;;;;5044624;28;20084;-62
2023/12/30 09:30:45;;;;;;;2.85;1.38;;;9.20;86.60;;;;;;5031291;28;21262;-62
2023/12/30 09:33:11;;;;;;;3.75;1.33;;;9.20;86.70;;;;;;5041748;28;20028;-61
2023/12/30 09:35:36;;;;;;;5.90;1.52;;;9.30;86.70;;;;;;5044302;28;20033;-62
2023/12/30 09:38:02;;;;;;;1.02;0.80;;;9.30;86.60;;;;;;5049081;28;20056;-61
2023/12/30 09:40:28;;;;;;;2.22;0.73;;;9.30;86.50;;;;;;5045012;28;20041;-61
2023/12/30 09:43:01;;;;;;;2.95;1.65;;;9.30;86.50;;;;;;5057075;28;20033;-61
2023/12/30 09:45:27;;;;;;;1.60;1.02;;;9.40;86.30;;;;;;5048776;28;20032;-61
2023/12/30 09:47:54;;;;;;;1.65;1.20;;;9.40;86.30;;;;;;5042218;28;20040;-61
2023/12/30 09:50:19;;;;;;;1.23;1.10;;;9.50;86.10;;;;;;5047188;28;20021;-73
2023/12/30 09:52:45;;;;;;;4.95;1.38;;;9.50;86.60;;;;;;5039553;28;20308;-74
2023/12/30 09:55:11;;;;;;;5.72;1.60;;;9.40;86.10;;;;;;5049103;28;20102;-74
2023/12/30 09:57:36;;;;;;;6.10;0.93;;;9.50;86.20;;;;;;5052399;28;20115;-74
2023/12/30 10:00:05;;;;;;;2.83;1.13;;;9.50;86.00;;;;;;5041336;28;20041;-74
2023/12/30 10:02:32;;;;;;;1.35;1.08;;;9.60;85.90;;;;;;5041823;28;20028;-74
2023/12/30 10:04:59;;;;;;;5.80;1.67;;;9.60;85.90;;;;;;5049899;28;20029;-74
2023/12/30 10:07:25;;;;;;;2.65;1.17;;;9.60;85.80;;;;;;5039812;28;21031;-74
2023/12/30 10:09:51;;;;;;;2.58;1.23;;;9.60;85.80;;;;;;5054453;28;20617;-74
2023/12/30 10:12:18;;;;;;;2.45;1.50;;;9.60;85.80;;;;;;5033496;28;20041;-74
2023/12/30 10:14:44;;;;;;;1.75;1.08;;;9.60;85.90;;;;;;5038652;28;20036;-74
2023/12/30 10:17:09;;;;;;;3.50;1.27;;;9.60;85.90;;;;;;5039254;28;20041;-74
2023/12/30 10:19:36;;;;;;;1.00;0.73;;;9.70;86.00;;;;;;5057755;28;20059;-74
2023/12/30 10:22:02;;;;;;;8.65;1.48;;;9.70;85.80;;;;;;5040957;28;20071;-74
2023/12/30 10:24:27;;;;;;;4.32;1.08;;;9.70;85.80;;;;;;5050672;28;20411;-74
2023/12/30 10:26:53;;;;;;;2.40;0.68;;;9.70;85.80;;;;;;5041411;28;20033;-74
2023/12/30 10:29:19;;;;;;;4.22;1.25;;;9.80;85.90;;;;;;5053128;28;20512;-74
2023/12/30 10:32:01;;;;;;;1.98;1.15;;;9.80;85.70;;;;;;5047585;28;20057;-73
2023/12/30 10:34:27;;;;;;;4.97;0.75;;;9.80;85.60;;;;;;5049403;28;20051;-74
2023/12/30 10:36:53;;;;;;;1.50;0.90;;;9.80;85.70;;;;;;5043559;28;20439;-74
2023/12/30 10:39:22;;;;;;;5.18;1.15;;;9.90;85.70;;;;;;5031573;28;20503;-74
2023/12/30 10:41:48;;;;;;;5.47;1.92;;;9.90;85.60;;;;;;5047256;28;20029;-74
2023/12/30 10:44:14;;;;;;;3.75;1.50;;;9.90;85.60;;;;;;5050984;28;20511;-74
2023/12/30 10:46:44;;;;;;;7.10;1.08;;;9.90;85.60;;;;;;5054393;28;20021;-74
2023/12/30 10:49:14;;;;;;;5.70;2.00;;;9.90;85.60;;;;;;5052350;28;20029;-74
2023/12/30 10:51:42;;;;;;;4.85;1.20;;;9.90;85.60;;;;;;5048284;28;20020;-74
2023/12/30 10:54:10;;;;;;;8.90;2.28;;;9.90;85.70;;;;;;5052769;28;20029;-74
2023/12/30 10:56:40;;;;;;;4.30;1.35;;;9.90;85.70;;;;;;5052477;28;20095;-74
2023/12/30 10:59:07;;;;;;;3.92;1.58;;;10.00;85.70;;;;;;5052335;28;20032;-74
2023/12/30 11:01:34;;;;;;;5.35;1.52;;;10.00;85.60;;;;;;5048940;28;20363;-74
2023/12/30 11:04:03;;;;;;;7.30;1.58;;;10.00;85.60;;;;;;5052357;28;20056;-73
2023/12/30 11:06:35;;;;;;;2.83;1.00;;;10.10;85.60;;;;;;5048458;28;20033;-74
2023/12/30 11:09:13;;;;;;;5.47;2.03;;;10.10;85.60;;;;;;5048642;28;20048;-74
2023/12/30 11:11:52;;;;;;;1.55;0.95;;;10.10;85.50;;;;;;5052648;28;20141;-74
2023/12/30 11:14:19;;;;;;;6.65;1.65;;;10.20;85.50;;;;;;5052756;28;20043;-75
2023/12/30 11:16:46;;;;;;;1.95;1.58;;;10.10;85.40;;;;;;5048853;28;20029;-74
2023/12/30 11:19:31;;;;;;;6.93;1.30;;;10.10;85.40;;;;;;5055245;28;20028;-74
2023/12/30 11:22:16;;;;;;;8.90;1.35;;;10.20;85.50;;;;;;5045182;28;20488;-74
2023/12/30 11:24:47;;;;;;;0.82;0.73;;;10.20;85.60;;;;;;5047597;28;20074;-74
2023/12/30 11:27:13;;;;;;;3.05;1.10;;;10.20;85.70;;;;;;5030348;28;20091;-74
2023/12/30 11:29:40;;;;;;;9.70;1.77;;;10.20;85.60;;;;;;5049871;28;20071;-71
2023/12/30 11:32:07;;;;;;;3.42;1.88;;;10.20;85.70;;;;;;5050260;28;20032;-72
2023/12/30 11:34:32;;;;;;;4.47;1.45;;;10.20;86.30;;;;;;5043786;28;20052;-70
2023/12/30 11:36:59;;;;;;;6.97;2.83;;;10.20;85.70;;;;;;5045124;28;20060;-71
2023/12/30 11:39:28;;;;;;;3.30;0.88;;;10.20;85.80;;;;;;5051868;28;20116;-71
2023/12/30 11:41:56;;;;;;;2.72;1.50;;;10.20;85.80;;;;;;5048088;28;20421;-74
2023/12/30 11:44:23;;;;;;;4.18;1.38;;;10.30;86.40;;;;;;5048336;28;20048;-74
2023/12/30 11:46:49;;;;;;;2.63;1.23;;;10.30;85.80;;;;;;5051019;28;20033;-62
2023/12/30 11:49:24;;;;;;;2.83;1.48;;;10.40;85.80;;;;;;5049262;28;20142;-62
2023/12/30 11:51:51;;;;;;;9.13;1.55;;;10.40;85.60;;;;;;5051307;28;20078;-62
2023/12/30 11:54:17;;;;;;;3.55;1.40;;;10.40;85.50;;;;;;5048530;28;20082;-62
2023/12/30 11:56:43;;;;;;;2.33;1.10;;;10.40;85.50;;;;;;5046102;28;20468;-62
2023/12/30 11:59:09;;;;;;;5.25;2.00;;;10.50;85.60;;;;;;5052425;28;20086;-62
2023/12/30 12:01:35;;;;;;;10.20;1.75;;;10.50;85.60;;;;;;5042907;28;20021;-61
2023/12/30 12:04:01;;;;;;;3.63;2.20;;;10.50;85.60;;;;;;5046245;28;20065;-62
2023/12/30 12:06:27;;;;;;;15.45;2.35;;;10.50;85.70;;;;;;5052320;28;20033;-62
2023/12/30 12:08:52;;;;;;;5.50;1.85;;;10.50;85.80;;;;;;5047154;28;20612;-62
2023/12/30 12:11:18;;;;;;;5.43;2.08;;;10.50;85.80;;;;;;5049250;28;20482;-62
2023/12/30 12:13:45;;;;;;;6.47;1.50;;;10.50;86.00;;;;;;5049743;28;20542;-63
2023/12/30 12:16:11;;;;;;;5.45;2.10;;;10.50;85.90;;;;;;5047888;28;20029;-62
2023/12/30 12:18:36;;;;;;;6.68;2.20;;;10.60;85.90;;;;;;5049175;28;20116;-62
2023/12/30 12:21:11;;;;;;;12.35;3.03;;;10.60;86.00;;;;;;5050832;28;20041;-73
2023/12/30 12:23:37;;;;;;;6.32;3.28;;;10.50;86.20;;;;;;5053455;28;20083;-73
2023/12/30 12:26:04;;;;;;;5.65;1.50;;;10.60;86.20;;;;;;5054371;28;20488;-73
2023/12/30 12:28:33;;;;;;;8.02;2.58;;;10.60;86.10;;;;;;5051514;28;20080;-74
2023/12/30 12:31:01;;;;;;;9.57;3.15;;;10.70;86.00;;;;;;5048344;28;20021;-73
2023/12/30 12:33:26;;;;;;;4.90;2.55;;;10.70;86.00;;;;;;5052157;28;20459;-62
2023/12/30 12:35:52;;;;;;;6.45;2.42;;;10.70;86.00;;;;;;5050531;28;20033;-74
2023/12/30 12:38:18;;;;;;;4.60;2.35;;;10.80;86.00;;;;;;5051074;28;20024;-71
2023/12/30 12:40:45;;;;;;;8.73;3.28;;;10.80;86.00;;;;;;5050172;28;20032;-73
2023/12/30 12:43:10;;;;;;;8.85;2.35;;;10.80;86.10;;;;;;5045924;28;20116;-62
2023/12/30 12:45:36;;;;;;;3.40;1.92;;;10.80;86.10;;;;;;5049964;28;20139;-73
2023/12/30 12:48:02;;;;;;;10.05;2.45;;;10.70;86.20;;;;;;5043485;28;20538;-62
2023/12/30 12:50:28;;;;;;;3.28;2.28;;;10.80;86.30;;;;;;5054174;28;20037;-62